Newton Stewart, United Kingdom
Current Conditions -  °F | °C
As of 10:50 PM on Tuesday 27 Jan 2015 (Local Time) from EGPK Reporting Station
Broken Clouds Broken Clouds  
Wind Chill: 37°   Ceiling: 1000
Heat Index: 45°   Visibility: 6mi
Dew Point: 43°   Wind: 18mph
Humidity: 93%   Direction: 190°S
Pressure: 29.77"   Gusts: NA
Location:  54.96°N, 4.48°W
Report Text: EGPK 272250Z 19016KT 9999 BKN010 07/06 Q1008
Loading
Personal Weather Stations






























Interactive Weather Map New forecast layout! Learn more

10-Day Weather Forecast

Advertisements
Track Severe Weather on mobile